sensor_id;sensor_type;location;lat;lon;timestamp;temperature;humidity
21417;DHT22;10869;52.238;10.716;2022-07-06T03:01:40;14.30;99.90
21417;DHT22;10869;52.238;10.716;2022-07-06T03:04:06;14.30;99.90
21417;DHT22;10869;52.238;10.716;2022-07-06T03:06:31;14.30;99.90
21417;DHT22;10869;52.238;10.716;2022-07-06T03:08:57;14.30;99.90
21417;DHT22;10869;52.238;10.716;2022-07-06T03:11:23;14.30;99.90
21417;DHT22;10869;52.238;10.716;2022-07-06T03:13:48;14.30;99.90
21417;DHT22;10869;52.238;10.716;2022-07-06T03:16:14;14.40;99.90
21417;DHT22;10869;52.238;10.716;2022-07-06T03:18:40;14.40;99.90
21417;DHT22;10869;52.238;10.716;2022-07-06T03:21:06;14.40;99.90
21417;DHT22;10869;52.238;10.716;2022-07-06T03:23:31;14.40;99.90
21417;DHT22;10869;52.238;10.716;2022-07-06T03:25:57;14.40;99.90
21417;DHT22;10869;52.238;10.716;2022-07-06T03:28:23;14.40;99.90
21417;DHT22;10869;52.238;10.716;2022-07-06T03:30:48;14.50;99.90
21417;DHT22;10869;52.238;10.716;2022-07-06T03:33:14;14.50;99.90
21417;DHT22;10869;52.238;10.716;2022-07-06T03:35:43;14.50;99.90
21417;DHT22;10869;52.238;10.716;2022-07-06T03:38:09;14.50;99.90
21417;DHT22;10869;52.238;10.716;2022-07-06T03:40:34;14.50;99.90
21417;DHT22;10869;52.238;10.716;2022-07-06T03:43:00;14.50;99.90
21417;DHT22;10869;52.238;10.716;2022-07-06T03:45:26;14.50;99.90
21417;DHT22;10869;52.238;10.716;2022-07-06T03:47:52;14.50;99.90
21417;DHT22;10869;52.238;10.716;2022-07-06T03:50:18;14.50;99.90
21417;DHT22;10869;52.238;10.716;2022-07-06T03:52:43;14.50;99.90
21417;DHT22;10869;52.238;10.716;2022-07-06T03:55:10;14.50;99.90
21417;DHT22;10869;52.238;10.716;2022-07-06T03:57:39;14.50;99.90
21417;DHT22;10869;52.238;10.716;2022-07-06T04:00:07;14.50;99.90
21417;DHT22;10869;52.238;10.716;2022-07-06T04:02:33;14.50;99.90
21417;DHT22;10869;52.238;10.716;2022-07-06T04:04:58;14.50;99.90
21417;DHT22;10869;52.238;10.716;2022-07-06T04:07:25;14.50;99.90
21417;DHT22;10869;52.238;10.716;2022-07-06T04:09:51;14.50;99.90
21417;DHT22;10869;52.238;10.716;2022-07-06T04:12:17;14.50;99.90
21417;DHT22;10869;52.238;10.716;2022-07-06T04:14:43;14.50;99.90
21417;DHT22;10869;52.238;10.716;2022-07-06T04:17:09;14.50;99.90
21417;DHT22;10869;52.238;10.716;2022-07-06T04:19:53;14.50;99.90
21417;DHT22;10869;52.238;10.716;2022-07-06T04:22:18;14.60;99.90
21417;DHT22;10869;52.238;10.716;2022-07-06T04:24:44;14.60;99.90
21417;DHT22;10869;52.238;10.716;2022-07-06T04:27:10;14.60;99.90
21417;DHT22;10869;52.238;10.716;2022-07-06T04:29:36;14.60;99.90
21417;DHT22;10869;52.238;10.716;2022-07-06T04:32:02;14.60;99.90
21417;DHT22;10869;52.238;10.716;2022-07-06T04:34:27;14.70;99.90
21417;DHT22;10869;52.238;10.716;2022-07-06T04:36:53;14.70;99.90
21417;DHT22;10869;52.238;10.716;2022-07-06T04:39:19;14.70;99.90
21417;DHT22;10869;52.238;10.716;2022-07-06T04:41:45;14.70;99.90
21417;DHT22;10869;52.238;10.716;2022-07-06T04:44:10;14.70;99.90
21417;DHT22;10869;52.238;10.716;2022-07-06T04:46:36;14.70;99.90
21417;DHT22;10869;52.238;10.716;2022-07-06T04:49:02;14.80;99.90
21417;DHT22;10869;52.238;10.716;2022-07-06T04:51:28;14.90;99.90
21417;DHT22;10869;52.238;10.716;2022-07-06T04:53:53;14.90;99.90
21417;DHT22;10869;52.238;10.716;2022-07-06T04:56:19;15.00;99.90
21417;DHT22;10869;52.238;10.716;2022-07-06T04:58:45;15.00;99.90
21417;DHT22;10869;52.238;10.716;2022-07-06T05:01:12;15.00;99.90
21417;DHT22;10869;52.238;10.716;2022-07-06T05:03:38;15.00;99.90
21417;DHT22;10869;52.238;10.716;2022-07-06T05:06:07;15.00;99.90
21417;DHT22;10869;52.238;10.716;2022-07-06T05:08:33;15.10;99.90
21417;DHT22;10869;52.238;10.716;2022-07-06T05:10:59;15.10;99.90
21417;DHT22;10869;52.238;10.716;2022-07-06T05:13:25;15.10;99.90
21417;DHT22;10869;52.238;10.716;2022-07-06T05:15:51;15.20;99.90
21417;DHT22;10869;52.238;10.716;2022-07-06T05:18:19;15.20;99.90
21417;DHT22;10869;52.238;10.716;2022-07-06T05:20:45;15.20;99.90
21417;DHT22;10869;52.238;10.716;2022-07-06T05:26:33;15.20;99.90
21417;DHT22;10869;52.238;10.716;2022-07-06T05:28:59;15.20;99.90
21417;DHT22;10869;52.238;10.716;2022-07-06T05:31:25;15.30;99.90
21417;DHT22;10869;52.238;10.716;2022-07-06T05:37:15;15.30;99.90
21417;DHT22;10869;52.238;10.716;2022-07-06T05:39:41;15.40;99.90
21417;DHT22;10869;52.238;10.716;2022-07-06T05:45:32;15.60;99.90
21417;DHT22;10869;52.238;10.716;2022-07-06T05:48:02;15.70;99.90
21417;DHT22;10869;52.238;10.716;2022-07-06T05:53:22;15.90;99.90
21417;DHT22;10869;52.238;10.716;2022-07-06T05:58:23;16.10;99.90
21417;DHT22;10869;52.238;10.716;2022-07-06T06:00:50;16.20;99.90
21417;DHT22;10869;52.238;10.716;2022-07-06T06:03:17;16.30;99.90
21417;DHT22;10869;52.238;10.716;2022-07-06T06:05:46;16.40;99.90
21417;DHT22;10869;52.238;10.716;2022-07-06T06:08:12;16.40;99.90
21417;DHT22;10869;52.238;10.716;2022-07-06T06:10:37;16.50;99.90
21417;DHT22;10869;52.238;10.716;2022-07-06T06:13:06;16.60;99.90
21417;DHT22;10869;52.238;10.716;2022-07-06T06:15:32;16.60;99.90
21417;DHT22;10869;52.238;10.716;2022-07-06T06:21:26;16.80;99.90
21417;DHT22;10869;52.238;10.716;2022-07-06T06:23:52;16.70;99.90
21417;DHT22;10869;52.238;10.716;2022-07-06T06:26:24;16.70;99.90
21417;DHT22;10869;52.238;10.716;2022-07-06T06:28:51;16.80;99.90
21417;DHT22;10869;52.238;10.716;2022-07-06T06:31:20;16.90;99.90
21417;DHT22;10869;52.238;10.716;2022-07-06T06:41:44;17.10;99.90
21417;DHT22;10869;52.238;10.716;2022-07-06T06:44:10;17.00;99.90
21417;DHT22;10869;52.238;10.716;2022-07-06T06:46:36;16.90;99.90
21417;DHT22;10869;52.238;10.716;2022-07-06T06:51:58;16.80;99.90
21417;DHT22;10869;52.238;10.716;2022-07-06T06:54:23;17.00;99.90
21417;DHT22;10869;52.238;10.716;2022-07-06T06:56:49;17.20;99.90
21417;DHT22;10869;52.238;10.716;2022-07-06T06:59:15;17.20;99.90
21417;DHT22;10869;52.238;10.716;2022-07-06T07:01:41;17.10;99.90
21417;DHT22;10869;52.238;10.716;2022-07-06T07:04:06;17.00;99.90
21417;DHT22;10869;52.238;10.716;2022-07-06T07:06:32;16.90;99.90
21417;DHT22;10869;52.238;10.716;2022-07-06T07:08:58;16.80;99.90
21417;DHT22;10869;52.238;10.716;2022-07-06T07:11:24;16.80;99.90
21417;DHT22;10869;52.238;10.716;2022-07-06T07:13:50;16.80;99.90
21417;DHT22;10869;52.238;10.716;2022-07-06T07:16:15;16.80;99.90
21417;DHT22;10869;52.238;10.716;2022-07-06T07:18:44;16.90;99.90
21417;DHT22;10869;52.238;10.716;2022-07-06T07:21:10;16.90;99.90
21417;DHT22;10869;52.238;10.716;2022-07-06T07:23:35;16.90;99.90
21417;DHT22;10869;52.238;10.716;2022-07-06T07:26:01;16.90;99.90
21417;DHT22;10869;52.238;10.716;2022-07-06T07:28:27;16.90;99.90
21417;DHT22;10869;52.238;10.716;2022-07-06T07:30:53;17.00;99.90
21417;DHT22;10869;52.238;10.716;2022-07-06T07:33:18;17.10;99.90
21417;DHT22;10869;52.238;10.716;2022-07-06T07:35:44;17.20;99.90
21417;DHT22;10869;52.238;10.716;2022-07-06T07:38:10;17.30;99.90
21417;DHT22;10869;52.238;10.716;2022-07-06T07:40:36;17.30;99.90
21417;DHT22;10869;52.238;10.716;2022-07-06T07:43:01;17.20;99.90
21417;DHT22;10869;52.238;10.716;2022-07-06T07:45:27;17.10;99.90
21417;DHT22;10869;52.238;10.716;2022-07-06T07:47:53;17.00;99.90
21417;DHT22;10869;52.238;10.716;2022-07-06T07:50:19;17.00;99.90
21417;DHT22;10869;52.238;10.716;2022-07-06T07:52:45;16.90;99.90
21417;DHT22;10869;52.238;10.716;2022-07-06T07:55:11;16.90;99.90
21417;DHT22;10869;52.238;10.716;2022-07-06T07:57:37;16.90;99.90
21417;DHT22;10869;52.238;10.716;2022-07-06T08:00:04;17.00;99.90
21417;DHT22;10869;52.238;10.716;2022-07-06T08:02:30;17.00;99.90
21417;DHT22;10869;52.238;10.716;2022-07-06T08:04:55;17.00;99.90
21417;DHT22;10869;52.238;10.716;2022-07-06T08:07:22;17.00;99.90
21417;DHT22;10869;52.238;10.716;2022-07-06T08:09:47;17.00;99.90
21417;DHT22;10869;52.238;10.716;2022-07-06T08:12:13;17.00;99.90
21417;DHT22;10869;52.238;10.716;2022-07-06T08:14:39;17.00;99.90
21417;DHT22;10869;52.238;10.716;2022-07-06T08:17:05;17.10;99.90
21417;DHT22;10869;52.238;10.716;2022-07-06T08:19:30;17.20;99.90
21417;DHT22;10869;52.238;10.716;2022-07-06T08:21:57;17.20;99.80
21417;DHT22;10869;52.238;10.716;2022-07-06T08:24:23;17.30;99.70
21417;DHT22;10869;52.238;10.716;2022-07-06T08:26:49;17.50;99.90
21417;DHT22;10869;52.238;10.716;2022-07-06T08:29:15;17.60;99.50
21417;DHT22;10869;52.238;10.716;2022-07-06T08:31:40;17.70;99.20
21417;DHT22;10869;52.238;10.716;2022-07-06T08:34:06;17.80;98.80
21417;DHT22;10869;52.238;10.716;2022-07-06T08:36:32;17.80;98.70
21417;DHT22;10869;52.238;10.716;2022-07-06T08:38:58;17.90;98.20
21417;DHT22;10869;52.238;10.716;2022-07-06T08:41:26;17.90;98.00
21417;DHT22;10869;52.238;10.716;2022-07-06T08:43:54;18.00;97.80
21417;DHT22;10869;52.238;10.716;2022-07-06T08:46:22;18.10;97.50
21417;DHT22;10869;52.238;10.716;2022-07-06T08:48:49;18.10;97.30
21417;DHT22;10869;52.238;10.716;2022-07-06T08:51:16;18.10;97.00
21417;DHT22;10869;52.238;10.716;2022-07-06T08:57:05;18.10;97.10
21417;DHT22;10869;52.238;10.716;2022-07-06T09:02:52;18.20;97.40
21417;DHT22;10869;52.238;10.716;2022-07-06T09:05:23;18.20;96.90
21417;DHT22;10869;52.238;10.716;2022-07-06T09:07:53;18.20;97.70
21417;DHT22;10869;52.238;10.716;2022-07-06T09:10:20;18.20;97.20
21417;DHT22;10869;52.238;10.716;2022-07-06T09:12:47;18.20;97.20
21417;DHT22;10869;52.238;10.716;2022-07-06T09:18:39;18.00;97.20
21417;DHT22;10869;52.238;10.716;2022-07-06T09:21:06;17.80;97.40
21417;DHT22;10869;52.238;10.716;2022-07-06T09:23:32;17.70;97.40
21417;DHT22;10869;52.238;10.716;2022-07-06T09:26:02;17.70;97.70
21417;DHT22;10869;52.238;10.716;2022-07-06T09:28:44;17.70;97.70
21417;DHT22;10869;52.238;10.716;2022-07-06T09:31:10;17.60;97.90
21417;DHT22;10869;52.238;10.716;2022-07-06T09:33:37;17.60;98.30
21417;DHT22;10869;52.238;10.716;2022-07-06T09:36:04;17.60;98.30
21417;DHT22;10869;52.238;10.716;2022-07-06T09:38:31;17.60;98.70
21417;DHT22;10869;52.238;10.716;2022-07-06T09:41:00;17.70;98.50
21417;DHT22;10869;52.238;10.716;2022-07-06T09:43:28;17.80;97.90
21417;DHT22;10869;52.238;10.716;2022-07-06T09:49:21;18.00;97.30
21417;DHT22;10869;52.238;10.716;2022-07-06T09:51:50;18.00;97.10
21417;DHT22;10869;52.238;10.716;2022-07-06T09:57:38;18.30;96.50
21417;DHT22;10869;52.238;10.716;2022-07-06T10:00:06;18.60;96.50
21417;DHT22;10869;52.238;10.716;2022-07-06T10:02:32;18.60;96.20
21417;DHT22;10869;52.238;10.716;2022-07-06T10:04:58;18.50;95.90
21417;DHT22;10869;52.238;10.716;2022-07-06T10:10:46;18.30;95.70
21417;DHT22;10869;52.238;10.716;2022-07-06T10:13:14;18.10;95.80
21417;DHT22;10869;52.238;10.716;2022-07-06T10:15:45;18.10;95.40
21417;DHT22;10869;52.238;10.716;2022-07-06T10:18:11;18.00;95.60
21417;DHT22;10869;52.238;10.716;2022-07-06T10:23:59;18.00;94.90
21417;DHT22;10869;52.238;10.716;2022-07-06T10:26:26;18.10;94.20
21417;DHT22;10869;52.238;10.716;2022-07-06T10:32:18;18.20;94.60
21417;DHT22;10869;52.238;10.716;2022-07-06T10:34:46;18.30;94.30
21417;DHT22;10869;52.238;10.716;2022-07-06T10:37:26;18.50;94.00
21417;DHT22;10869;52.238;10.716;2022-07-06T10:39:52;19.10;93.50
21417;DHT22;10869;52.238;10.716;2022-07-06T10:45:58;20.00;92.20
21417;DHT22;10869;52.238;10.716;2022-07-06T10:48:34;20.40;92.20
21417;DHT22;10869;52.238;10.716;2022-07-06T10:51:00;20.60;91.60
21417;DHT22;10869;52.238;10.716;2022-07-06T10:53:31;20.40;91.40
21417;DHT22;10869;52.238;10.716;2022-07-06T10:59:21;20.00;91.10
21417;DHT22;10869;52.238;10.716;2022-07-06T11:02:16;19.80;91.20
21417;DHT22;10869;52.238;10.716;2022-07-06T11:04:46;19.50;91.10
21417;DHT22;10869;52.238;10.716;2022-07-06T11:07:14;19.40;91.20
21417;DHT22;10869;52.238;10.716;2022-07-06T11:09:41;19.10;91.40
21417;DHT22;10869;52.238;10.716;2022-07-06T11:12:20;18.90;91.20
21417;DHT22;10869;52.238;10.716;2022-07-06T11:14:58;18.80;91.00
21417;DHT22;10869;52.238;10.716;2022-07-06T11:21:22;18.70;91.20
21417;DHT22;10869;52.238;10.716;2022-07-06T11:27:10;18.70;91.50
21417;DHT22;10869;52.238;10.716;2022-07-06T13:31:15;19.20;91.60
21417;DHT22;10869;52.238;10.716;2022-07-06T13:33:41;19.40;91.00
21417;DHT22;10869;52.238;10.716;2022-07-06T13:36:07;19.60;90.90
21417;DHT22;10869;52.238;10.716;2022-07-06T13:38:33;19.70;90.90
21417;DHT22;10869;52.238;10.716;2022-07-06T13:40:59;19.80;89.80
21417;DHT22;10869;52.238;10.716;2022-07-06T13:43:24;19.80;90.40
21417;DHT22;10869;52.238;10.716;2022-07-06T13:45:50;19.80;89.80
21417;DHT22;10869;52.238;10.716;2022-07-06T13:48:16;19.80;88.60
21417;DHT22;10869;52.238;10.716;2022-07-06T13:50:42;19.70;88.20
21417;DHT22;10869;52.238;10.716;2022-07-06T13:53:08;19.80;88.30
21417;DHT22;10869;52.238;10.716;2022-07-06T13:55:35;19.90;88.30
21417;DHT22;10869;52.238;10.716;2022-07-06T13:58:00;19.90;88.30
21417;DHT22;10869;52.238;10.716;2022-07-06T14:00:26;20.00;88.60
21417;DHT22;10869;52.238;10.716;2022-07-06T14:02:52;20.00;88.50
21417;DHT22;10869;52.238;10.716;2022-07-06T14:05:17;20.00;89.30
21417;DHT22;10869;52.238;10.716;2022-07-06T14:07:43;20.10;89.20
21417;DHT22;10869;52.238;10.716;2022-07-06T14:13:31;20.40;89.40
21417;DHT22;10869;52.238;10.716;2022-07-06T14:15:57;20.50;89.80
21417;DHT22;10869;52.238;10.716;2022-07-06T14:18:23;20.50;88.90
21417;DHT22;10869;52.238;10.716;2022-07-06T14:20:50;20.70;89.20
21417;DHT22;10869;52.238;10.716;2022-07-06T14:23:16;20.70;87.90
21417;DHT22;10869;52.238;10.716;2022-07-06T14:25:43;20.70;87.20
21417;DHT22;10869;52.238;10.716;2022-07-06T14:28:10;21.00;87.70
21417;DHT22;10869;52.238;10.716;2022-07-06T14:30:37;21.10;86.90
21417;DHT22;10869;52.238;10.716;2022-07-06T14:33:09;21.10;85.90
21417;DHT22;10869;52.238;10.716;2022-07-06T14:35:35;21.10;85.30
21417;DHT22;10869;52.238;10.716;2022-07-06T14:38:02;21.00;85.90
21417;DHT22;10869;52.238;10.716;2022-07-06T14:40:30;21.00;86.10
21417;DHT22;10869;52.238;10.716;2022-07-06T14:46:17;20.90;85.60
21417;DHT22;10869;52.238;10.716;2022-07-06T14:48:44;20.80;84.00
21417;DHT22;10869;52.238;10.716;2022-07-06T14:51:10;20.90;84.80
21417;DHT22;10869;52.238;10.716;2022-07-06T14:53:36;20.90;83.50
21417;DHT22;10869;52.238;10.716;2022-07-06T14:58:37;20.80;83.60
21417;DHT22;10869;52.238;10.716;2022-07-06T15:01:04;20.80;83.80
21417;DHT22;10869;52.238;10.716;2022-07-06T15:03:30;20.80;84.40
21417;DHT22;10869;52.238;10.716;2022-07-06T15:05:55;20.90;83.50
21417;DHT22;10869;52.238;10.716;2022-07-06T15:08:21;20.80;83.20
21417;DHT22;10869;52.238;10.716;2022-07-06T15:10:47;20.90;83.40
21417;DHT22;10869;52.238;10.716;2022-07-06T15:16:35;20.90;82.40
21417;DHT22;10869;52.238;10.716;2022-07-06T15:19:01;20.90;84.20
21417;DHT22;10869;52.238;10.716;2022-07-06T15:21:26;21.00;84.60
21417;DHT22;10869;52.238;10.716;2022-07-06T15:23:52;21.00;84.40
21417;DHT22;10869;52.238;10.716;2022-07-06T15:40:13;21.10;83.00
21417;DHT22;10869;52.238;10.716;2022-07-06T15:42:47;21.10;82.70
21417;DHT22;10869;52.238;10.716;2022-07-06T15:50:23;20.60;82.80
21417;DHT22;10869;52.238;10.716;2022-07-06T15:52:49;20.60;83.30
21417;DHT22;10869;52.238;10.716;2022-07-06T15:55:15;20.50;83.50
21417;DHT22;10869;52.238;10.716;2022-07-06T15:57:41;20.40;83.60
21417;DHT22;10869;52.238;10.716;2022-07-06T16:00:07;20.20;83.80
21417;DHT22;10869;52.238;10.716;2022-07-06T16:02:33;20.10;83.90
21417;DHT22;10869;52.238;10.716;2022-07-06T16:04:59;20.10;84.60
21417;DHT22;10869;52.238;10.716;2022-07-06T16:07:24;20.00;84.60
21417;DHT22;10869;52.238;10.716;2022-07-06T16:09:51;20.00;85.30
21417;DHT22;10869;52.238;10.716;2022-07-06T16:12:17;20.00;86.00
21417;DHT22;10869;52.238;10.716;2022-07-06T16:14:43;20.10;84.90
21417;DHT22;10869;52.238;10.716;2022-07-06T16:17:11;20.20;84.70
21417;DHT22;10869;52.238;10.716;2022-07-06T16:19:37;20.10;83.80
21417;DHT22;10869;52.238;10.716;2022-07-06T16:22:03;20.10;84.20
21417;DHT22;10869;52.238;10.716;2022-07-06T16:24:32;20.00;84.40
21417;DHT22;10869;52.238;10.716;2022-07-06T16:26:57;20.00;84.40
21417;DHT22;10869;52.238;10.716;2022-07-06T16:29:23;20.00;84.90
21417;DHT22;10869;52.238;10.716;2022-07-06T16:31:49;20.00;84.90
21417;DHT22;10869;52.238;10.716;2022-07-06T16:34:15;20.00;84.90
21417;DHT22;10869;52.238;10.716;2022-07-06T16:36:41;20.00;85.00
21417;DHT22;10869;52.238;10.716;2022-07-06T16:39:07;19.90;84.70
21417;DHT22;10869;52.238;10.716;2022-07-06T16:41:33;19.90;85.20
21417;DHT22;10869;52.238;10.716;2022-07-06T16:43:58;19.90;85.20
21417;DHT22;10869;52.238;10.716;2022-07-06T16:46:24;19.90;84.80
21417;DHT22;10869;52.238;10.716;2022-07-06T16:48:50;19.90;84.50
21417;DHT22;10869;52.238;10.716;2022-07-06T16:51:16;19.80;85.10
21417;DHT22;10869;52.238;10.716;2022-07-06T16:53:41;19.80;85.90
21417;DHT22;10869;52.238;10.716;2022-07-06T16:56:07;19.70;86.30
21417;DHT22;10869;52.238;10.716;2022-07-06T16:58:33;19.60;86.40
21417;DHT22;10869;52.238;10.716;2022-07-06T17:00:59;19.60;86.80
21417;DHT22;10869;52.238;10.716;2022-07-06T17:03:25;19.50;86.60
21417;DHT22;10869;52.238;10.716;2022-07-06T17:05:51;19.60;87.00
21417;DHT22;10869;52.238;10.716;2022-07-06T17:08:17;19.60;87.40
21417;DHT22;10869;52.238;10.716;2022-07-06T17:10:43;19.60;87.70
21417;DHT22;10869;52.238;10.716;2022-07-06T17:13:09;19.60;87.70
21417;DHT22;10869;52.238;10.716;2022-07-06T17:15:35;19.60;87.40
21417;DHT22;10869;52.238;10.716;2022-07-06T17:18:01;19.70;86.90
21417;DHT22;10869;52.238;10.716;2022-07-06T17:20:27;19.70;86.90
21417;DHT22;10869;52.238;10.716;2022-07-06T17:22:53;19.80;87.50
21417;DHT22;10869;52.238;10.716;2022-07-06T17:25:22;19.90;87.10
21417;DHT22;10869;52.238;10.716;2022-07-06T17:27:47;19.90;87.00
21417;DHT22;10869;52.238;10.716;2022-07-06T17:30:13;19.90;86.60
21417;DHT22;10869;52.238;10.716;2022-07-06T17:32:39;19.80;86.60
21417;DHT22;10869;52.238;10.716;2022-07-06T17:35:05;19.80;87.40
21417;DHT22;10869;52.238;10.716;2022-07-06T17:37:31;19.80;87.10
21417;DHT22;10869;52.238;10.716;2022-07-06T17:39:56;19.70;86.90
21417;DHT22;10869;52.238;10.716;2022-07-06T17:42:22;19.60;86.90
21417;DHT22;10869;52.238;10.716;2022-07-06T17:44:50;19.50;87.80
21417;DHT22;10869;52.238;10.716;2022-07-06T17:47:16;19.40;87.50
21417;DHT22;10869;52.238;10.716;2022-07-06T17:49:42;19.40;87.80
21417;DHT22;10869;52.238;10.716;2022-07-06T17:52:07;19.40;87.90
21417;DHT22;10869;52.238;10.716;2022-07-06T17:54:43;19.30;87.80
21417;DHT22;10869;52.238;10.716;2022-07-06T17:57:10;19.30;87.20
21417;DHT22;10869;52.238;10.716;2022-07-06T17:59:37;19.30;87.40
21417;DHT22;10869;52.238;10.716;2022-07-06T18:02:03;19.30;87.20
21417;DHT22;10869;52.238;10.716;2022-07-06T18:04:29;19.30;88.60
21417;DHT22;10869;52.238;10.716;2022-07-06T18:06:55;19.20;87.30
21417;DHT22;10869;52.238;10.716;2022-07-06T18:09:21;19.20;88.10
21417;DHT22;10869;52.238;10.716;2022-07-06T18:11:47;19.20;88.20
21417;DHT22;10869;52.238;10.716;2022-07-06T18:14:12;19.20;87.70
21417;DHT22;10869;52.238;10.716;2022-07-06T18:16:41;19.10;88.30
21417;DHT22;10869;52.238;10.716;2022-07-06T18:19:07;19.10;88.60
21417;DHT22;10869;52.238;10.716;2022-07-06T18:21:33;19.00;88.70
21417;DHT22;10869;52.238;10.716;2022-07-06T18:23:59;18.80;89.00
21417;DHT22;10869;52.238;10.716;2022-07-06T18:26:25;18.70;89.00
21417;DHT22;10869;52.238;10.716;2022-07-06T18:28:50;18.60;89.40
21417;DHT22;10869;52.238;10.716;2022-07-06T18:31:16;18.60;89.50
21417;DHT22;10869;52.238;10.716;2022-07-06T18:33:42;18.50;90.00
21417;DHT22;10869;52.238;10.716;2022-07-06T18:39:30;18.40;89.70
21417;DHT22;10869;52.238;10.716;2022-07-06T18:41:56;18.40;90.20
21417;DHT22;10869;52.238;10.716;2022-07-06T18:44:22;18.30;90.20
21417;DHT22;10869;52.238;10.716;2022-07-06T18:46:48;18.30;90.40
21417;DHT22;10869;52.238;10.716;2022-07-06T18:49:13;18.20;90.50
21417;DHT22;10869;52.238;10.716;2022-07-06T18:51:39;18.20;90.50
21417;DHT22;10869;52.238;10.716;2022-07-06T18:54:07;18.20;90.50
21417;DHT22;10869;52.238;10.716;2022-07-06T18:56:33;18.00;90.70
21417;DHT22;10869;52.238;10.716;2022-07-06T18:58:59;18.00;91.00
21417;DHT22;10869;52.238;10.716;2022-07-06T19:01:25;18.00;91.20
21417;DHT22;10869;52.238;10.716;2022-07-06T19:03:51;18.00;91.40
21417;DHT22;10869;52.238;10.716;2022-07-06T19:06:17;17.90;91.20
21417;DHT22;10869;52.238;10.716;2022-07-06T19:08:45;17.90;91.50
21417;DHT22;10869;52.238;10.716;2022-07-06T19:11:12;17.80;91.60
21417;DHT22;10869;52.238;10.716;2022-07-06T19:17:00;17.70;91.80
21417;DHT22;10869;52.238;10.716;2022-07-06T19:19:26;17.60;91.80
21417;DHT22;10869;52.238;10.716;2022-07-06T19:21:52;17.60;91.90
21417;DHT22;10869;52.238;10.716;2022-07-06T19:27:40;17.50;92.20
21417;DHT22;10869;52.238;10.716;2022-07-06T19:30:06;17.50;92.20
21417;DHT22;10869;52.238;10.716;2022-07-06T19:32:33;17.40;92.20
21417;DHT22;10869;52.238;10.716;2022-07-06T19:35:02;17.40;92.20
21417;DHT22;10869;52.238;10.716;2022-07-06T19:37:27;17.30;92.50
21417;DHT22;10869;52.238;10.716;2022-07-06T19:39:53;17.20;92.60
21417;DHT22;10869;52.238;10.716;2022-07-06T19:42:19;17.20;92.70
21417;DHT22;10869;52.238;10.716;2022-07-06T19:44:45;17.10;92.80
21417;DHT22;10869;52.238;10.716;2022-07-06T19:47:10;17.10;92.70
21417;DHT22;10869;52.238;10.716;2022-07-06T19:49:36;17.00;93.00
21417;DHT22;10869;52.238;10.716;2022-07-06T19:52:02;16.90;92.90
21417;DHT22;10869;52.238;10.716;2022-07-06T19:54:28;16.90;93.20
21417;DHT22;10869;52.238;10.716;2022-07-06T19:56:53;16.80;93.20
21417;DHT22;10869;52.238;10.716;2022-07-06T19:59:19;16.80;93.30
21417;DHT22;10869;52.238;10.716;2022-07-06T20:01:45;16.70;93.50
21417;DHT22;10869;52.238;10.716;2022-07-06T20:04:11;16.70;93.60
21417;DHT22;10869;52.238;10.716;2022-07-06T20:06:39;16.60;93.50
21417;DHT22;10869;52.238;10.716;2022-07-06T20:15:49;16.60;93.40
21417;DHT22;10869;52.238;10.716;2022-07-06T20:18:15;16.50;93.50
21417;DHT22;10869;52.238;10.716;2022-07-06T20:20:41;16.50;93.50
21417;DHT22;10869;52.238;10.716;2022-07-06T20:23:07;16.50;93.60
21417;DHT22;10869;52.238;10.716;2022-07-06T20:25:33;16.50;93.70
21417;DHT22;10869;52.238;10.716;2022-07-06T20:27:58;16.50;93.60
21417;DHT22;10869;52.238;10.716;2022-07-06T20:30:24;16.40;93.80
21417;DHT22;10869;52.238;10.716;2022-07-06T20:36:12;16.40;93.70
21417;DHT22;10869;52.238;10.716;2022-07-06T20:38:38;16.40;93.70
21417;DHT22;10869;52.238;10.716;2022-07-06T20:41:04;16.30;93.70
21417;DHT22;10869;52.238;10.716;2022-07-06T20:43:30;16.30;93.80
21417;DHT22;10869;52.238;10.716;2022-07-06T20:49:18;16.20;94.00
21417;DHT22;10869;52.238;10.716;2022-07-06T20:55:05;16.10;94.20
21417;DHT22;10869;52.238;10.716;2022-07-06T21:00:53;16.10;94.40
21417;DHT22;10869;52.238;10.716;2022-07-06T21:03:19;16.00;94.50
21417;DHT22;10869;52.238;10.716;2022-07-06T21:05:45;16.00;94.70
21417;DHT22;10869;52.238;10.716;2022-07-06T21:08:11;16.00;94.80
21417;DHT22;10869;52.238;10.716;2022-07-06T21:10:43;16.00;94.80
21417;DHT22;10869;52.238;10.716;2022-07-06T21:13:09;16.00;94.80
21417;DHT22;10869;52.238;10.716;2022-07-06T21:15:35;16.00;94.60
21417;DHT22;10869;52.238;10.716;2022-07-06T21:18:00;16.00;94.70
21417;DHT22;10869;52.238;10.716;2022-07-06T21:20:26;16.10;94.80
21417;DHT22;10869;52.238;10.716;2022-07-06T21:22:52;16.10;94.80
21417;DHT22;10869;52.238;10.716;2022-07-06T21:25:17;16.10;94.90
21417;DHT22;10869;52.238;10.716;2022-07-06T21:27:43;16.10;95.00
21417;DHT22;10869;52.238;10.716;2022-07-06T21:30:09;16.10;94.90
21417;DHT22;10869;52.238;10.716;2022-07-06T21:32:35;16.20;94.90
21417;DHT22;10869;52.238;10.716;2022-07-06T21:35:01;16.20;94.90
21417;DHT22;10869;52.238;10.716;2022-07-06T21:37:27;16.20;94.80
21417;DHT22;10869;52.238;10.716;2022-07-06T21:39:54;16.20;95.00
21417;DHT22;10869;52.238;10.716;2022-07-06T21:42:20;16.20;95.00
21417;DHT22;10869;52.238;10.716;2022-07-06T21:44:47;16.10;95.10
